createdAt,value
2023-08-23T00:01:24.244Z,70.23
2023-08-23T00:03:53.028Z,70.41
2023-08-23T00:06:20.266Z,71.56
2023-08-23T00:08:47.215Z,71.02
2023-08-23T00:11:14.143Z,70.50
2023-08-23T00:13:41.077Z,70.77
2023-08-23T00:16:08.001Z,70.88
2023-08-23T00:18:34.896Z,71.05
2023-08-23T00:21:01.808Z,71.46
2023-08-23T00:23:28.650Z,71.49
2023-08-23T00:25:55.528Z,71.72
2023-08-23T00:28:22.425Z,73.29
2023-08-23T00:30:58.584Z,74.31
2023-08-23T00:33:25.547Z,73.69
2023-08-23T00:35:52.477Z,73.16
2023-08-23T00:38:19.377Z,73.38
2023-08-23T00:40:46.255Z,73.42
2023-08-23T00:43:13.091Z,74.59
2023-08-23T00:45:42.723Z,77.35
2023-08-23T00:48:12.848Z,76.90
2023-08-23T00:50:41.889Z,78.16
2023-08-23T00:53:09.783Z,78.05
2023-08-23T00:55:36.992Z,78.85
2023-08-23T00:58:05.251Z,80.32
2023-08-23T01:00:33.435Z,81.02
2023-08-23T01:03:01.147Z,81.08
2023-08-23T01:06:05.097Z,81.18
2023-08-23T01:09:17.745Z,80.44
2023-08-23T01:12:08.622Z,83.85
2023-08-23T01:14:59.682Z,83.25
2023-08-23T01:17:28.093Z,81.83
2023-08-23T01:19:57.349Z,81.30
2023-08-23T01:22:25.528Z,82.55
2023-08-23T01:24:52.874Z,83.07
2023-08-23T01:27:20.432Z,81.99
2023-08-23T01:29:48.333Z,82.08
2023-08-23T01:32:42.962Z,81.58
2023-08-23T01:35:20.918Z,82.50
2023-08-23T01:37:54.748Z,82.41
2023-08-23T01:40:22.677Z,81.95
2023-08-23T01:42:49.890Z,81.88
2023-08-23T01:45:16.967Z,82.51
2023-08-23T01:47:43.825Z,83.47
2023-08-23T01:50:11.043Z,83.08
2023-08-23T01:52:37.891Z,82.91
2023-08-23T01:55:05.278Z,83.08
2023-08-23T01:57:32.156Z,82.70
2023-08-23T01:59:59.031Z,82.26
2023-08-23T02:02:25.933Z,82.26
2023-08-23T02:04:52.827Z,82.27
2023-08-23T02:07:19.667Z,82.49
2023-08-23T02:09:46.598Z,81.99
2023-08-23T02:12:13.472Z,82.20
2023-08-23T02:14:40.326Z,81.72
2023-08-23T02:17:07.449Z,82.00
2023-08-23T02:19:34.333Z,81.97
2023-08-23T02:22:01.209Z,81.42
2023-08-23T02:24:28.113Z,81.45
2023-08-23T02:26:54.975Z,81.06
2023-08-23T02:29:21.913Z,80.75
2023-08-23T02:31:48.765Z,80.94
2023-08-23T02:34:15.659Z,81.01
2023-08-23T02:36:42.541Z,80.04
2023-08-23T02:39:10.697Z,80.66
2023-08-23T02:41:37.518Z,80.78
2023-08-23T02:44:04.593Z,81.64
2023-08-23T02:46:31.524Z,82.93
2023-08-23T02:48:58.387Z,82.42
2023-08-23T02:51:25.246Z,82.32
2023-08-23T02:53:52.222Z,81.87
2023-08-23T02:56:19.100Z,81.91
2023-08-23T02:58:46.011Z,81.32
2023-08-23T03:01:12.892Z,81.73
2023-08-23T03:03:39.873Z,81.46
2023-08-23T03:06:06.725Z,81.61
2023-08-23T03:08:33.563Z,81.29
2023-08-23T03:11:08.473Z,81.06
2023-08-23T03:13:35.900Z,82.08
2023-08-23T03:16:03.145Z,81.89
2023-08-23T03:18:30.370Z,81.23
2023-08-23T03:20:57.257Z,80.77
2023-08-23T03:23:24.180Z,81.31
2023-08-23T03:25:51.592Z,81.22
2023-08-23T03:28:18.530Z,80.70
2023-08-23T03:30:45.762Z,80.71
2023-08-23T03:33:12.768Z,80.17
2023-08-23T03:35:39.664Z,80.21
2023-08-23T03:38:06.799Z,80.04
2023-08-23T03:40:39.373Z,80.22
2023-08-23T03:43:06.758Z,80.56
2023-08-23T03:45:34.799Z,79.90
2023-08-23T03:48:01.820Z,80.62
2023-08-23T03:50:28.794Z,82.23
2023-08-23T03:52:55.692Z,81.72
2023-08-23T03:55:22.577Z,83.05
2023-08-23T03:57:52.031Z,83.77
2023-08-23T04:00:19.140Z,83.43
2023-08-23T04:02:46.688Z,83.19
2023-08-23T04:05:13.787Z,84.46
2023-08-23T04:07:41.918Z,83.73
2023-08-23T04:10:09.343Z,83.32
2023-08-23T04:12:36.311Z,83.12
2023-08-23T04:15:04.202Z,84.82
2023-08-23T04:17:31.234Z,85.40
2023-08-23T04:19:58.181Z,84.17
2023-08-23T04:22:25.089Z,84.09
2023-08-23T04:24:52.509Z,83.41
2023-08-23T04:27:19.490Z,82.74
2023-08-23T04:29:46.391Z,82.78
2023-08-23T04:32:14.139Z,83.14
2023-08-23T04:34:41.329Z,82.29
2023-08-23T04:37:08.515Z,81.93
2023-08-23T04:39:35.564Z,82.61
2023-08-23T04:42:02.810Z,83.18
2023-08-23T04:44:30.480Z,83.44
2023-08-23T04:46:59.074Z,85.21
2023-08-23T04:49:26.030Z,84.69
2023-08-23T04:51:53.014Z,85.43
2023-08-23T04:54:19.871Z,85.17
2023-08-23T04:56:46.814Z,84.19
2023-08-23T04:59:13.707Z,84.76
2023-08-23T05:01:40.776Z,84.34
2023-08-23T05:04:08.679Z,83.28
2023-08-23T05:06:36.445Z,83.74
2023-08-23T05:09:05.856Z,83.77
2023-08-23T05:11:33.285Z,83.40
2023-08-23T05:14:00.181Z,82.27
2023-08-23T05:16:27.130Z,82.25
2023-08-23T05:18:54.089Z,83.27
2023-08-23T05:21:20.965Z,81.94
2023-08-23T05:23:47.899Z,82.22
2023-08-23T05:26:14.798Z,82.31
2023-08-23T05:28:41.619Z,81.60
2023-08-23T05:31:08.548Z,81.20
2023-08-23T05:33:35.490Z,80.56
2023-08-23T05:36:02.393Z,80.83
2023-08-23T05:38:30.387Z,80.63
2023-08-23T05:40:57.337Z,80.17
2023-08-23T05:43:24.487Z,80.01
2023-08-23T05:45:55.955Z,79.23
2023-08-23T05:48:23.386Z,78.35
2023-08-23T05:50:50.499Z,78.54
2023-08-23T05:53:20.809Z,77.38
2023-08-23T05:55:49.601Z,77.35
2023-08-23T05:58:19.133Z,76.75
2023-08-23T06:00:48.050Z,76.44
2023-08-23T06:03:18.674Z,73.62
2023-08-23T06:05:45.982Z,74.54
2023-08-23T06:08:12.939Z,73.93
2023-08-23T06:10:39.924Z,72.49
2023-08-23T06:13:06.811Z,72.49
2023-08-23T06:15:33.722Z,71.99
2023-08-23T06:18:00.756Z,71.65
2023-08-23T06:20:29.947Z,70.23
2023-08-23T06:22:58.943Z,70.98
2023-08-23T06:25:26.118Z,69.10
2023-08-23T06:27:53.066Z,71.00
2023-08-23T06:30:20.055Z,68.89
2023-08-23T06:32:50.419Z,65.75
2023-08-23T06:35:18.713Z,65.18
2023-08-23T06:37:46.512Z,65.20
2023-08-23T06:40:15.303Z,66.71
2023-08-23T06:42:42.243Z,67.58
2023-08-23T06:45:10.727Z,68.05
2023-08-23T06:47:38.714Z,68.57
2023-08-23T06:50:10.534Z,68.76
2023-08-23T06:52:39.929Z,70.37
2023-08-23T06:55:07.721Z,69.13
2023-08-23T06:57:34.828Z,69.23
2023-08-23T07:00:01.861Z,68.42
2023-08-23T07:02:28.804Z,68.70
2023-08-23T07:04:55.783Z,69.62
2023-08-23T07:07:23.255Z,68.73
2023-08-23T07:09:51.219Z,70.36
2023-08-23T07:12:18.305Z,69.88
2023-08-23T07:14:48.034Z,71.76
2023-08-23T07:17:15.158Z,69.61
2023-08-23T07:19:42.131Z,68.37
2023-08-23T07:22:09.122Z,66.93
2023-08-23T07:24:36.012Z,66.85
2023-08-23T07:27:02.959Z,68.92
2023-08-23T07:29:30.588Z,69.26
2023-08-23T07:31:58.586Z,67.69
2023-08-23T07:34:26.830Z,67.01
2023-08-23T07:36:53.793Z,65.95
2023-08-23T07:39:21.151Z,63.79
2023-08-23T07:41:48.033Z,62.67
2023-08-23T07:44:14.927Z,64.36
2023-08-23T07:46:41.799Z,67.91
2023-08-23T07:49:08.731Z,64.48
2023-08-23T07:51:35.620Z,62.66
2023-08-23T07:54:04.173Z,58.24
2023-08-23T07:56:31.037Z,59.92
2023-08-23T07:58:58.262Z,61.03
2023-08-23T08:01:25.403Z,61.00
2023-08-23T08:03:52.843Z,60.28
2023-08-23T08:06:20.331Z,56.18
2023-08-23T08:08:47.232Z,55.93
2023-08-23T08:11:15.622Z,53.28
2023-08-23T08:13:42.883Z,55.20
2023-08-23T08:16:15.397Z,52.56
2023-08-23T08:18:44.220Z,51.56
2023-08-23T08:21:11.598Z,50.72
2023-08-23T08:23:38.705Z,52.05
2023-08-23T08:26:07.906Z,53.29
2023-08-23T08:28:35.054Z,51.45
2023-08-23T08:31:01.991Z,52.43
2023-08-23T08:33:28.889Z,49.44
2023-08-23T08:35:55.730Z,52.54
2023-08-23T08:38:23.648Z,52.73
2023-08-23T08:40:51.395Z,48.82
2023-08-23T08:43:19.417Z,50.12
2023-08-23T08:45:47.185Z,49.01
2023-08-23T08:48:14.274Z,49.51
2023-08-23T08:50:44.009Z,48.70
2023-08-23T08:53:18.308Z,49.77
2023-08-23T08:55:49.833Z,44.80
2023-08-23T08:58:20.953Z,48.06
2023-08-23T09:00:53.842Z,49.60
2023-08-23T09:03:21.488Z,47.16
2023-08-23T09:05:51.884Z,46.57
2023-08-23T09:08:18.981Z,47.86
2023-08-23T09:10:46.139Z,48.92
2023-08-23T09:13:13.288Z,45.49
2023-08-23T09:15:40.467Z,45.75
2023-08-23T09:18:07.565Z,43.69
2023-08-23T09:20:36.052Z,44.17
2023-08-23T09:23:02.950Z,44.70
2023-08-23T09:25:29.964Z,44.11
2023-08-23T09:27:57.299Z,44.04
2023-08-23T09:30:24.688Z,44.39
2023-08-23T09:32:51.591Z,42.70
2023-08-23T09:35:19.345Z,40.59
2023-08-23T09:37:50.392Z,45.18
2023-08-23T09:40:26.389Z,43.48
2023-08-23T09:42:57.149Z,44.25
2023-08-23T09:45:26.728Z,45.79
2023-08-23T09:48:00.600Z,44.33
2023-08-23T09:50:29.530Z,42.92
2023-08-23T09:53:05.658Z,44.50
2023-08-23T09:55:35.817Z,45.24
2023-08-23T09:58:03.782Z,45.35
2023-08-23T10:00:31.198Z,44.28
2023-08-23T10:02:59.042Z,43.69
2023-08-23T10:05:28.145Z,44.20
2023-08-23T10:07:57.337Z,42.86
2023-08-23T10:10:25.391Z,43.50
2023-08-23T10:12:56.840Z,41.94
2023-08-23T10:15:33.066Z,43.71
2023-08-23T10:18:02.170Z,43.01
2023-08-23T10:20:29.260Z,44.00
2023-08-23T10:22:59.418Z,42.05
2023-08-23T10:25:26.843Z,43.55
2023-08-23T10:27:57.149Z,43.60
2023-08-23T10:30:29.987Z,42.53
2023-08-23T10:33:09.912Z,44.47
2023-08-23T10:35:38.733Z,43.52
2023-08-23T10:38:10.088Z,43.56
2023-08-23T10:40:39.669Z,43.46
2023-08-23T10:43:16.000Z,43.12
2023-08-23T10:45:49.626Z,44.78
2023-08-23T10:48:20.130Z,44.35
2023-08-23T10:50:48.680Z,43.88
2023-08-23T10:53:17.915Z,44.62
2023-08-23T10:55:46.099Z,41.92
2023-08-23T10:58:14.815Z,41.21
2023-08-23T11:00:51.871Z,43.84
2023-08-23T11:03:20.977Z,40.63
2023-08-23T11:05:48.499Z,41.67
2023-08-23T11:08:16.954Z,42.91
2023-08-23T11:10:44.997Z,43.44
2023-08-23T11:13:13.130Z,43.04
2023-08-23T11:15:42.259Z,43.01
2023-08-23T11:18:09.202Z,41.08
2023-08-23T11:20:36.297Z,39.41
2023-08-23T11:23:04.952Z,40.02
2023-08-23T11:25:33.090Z,38.50
2023-08-23T11:28:00.516Z,38.52
2023-08-23T11:30:28.295Z,36.72
2023-08-23T11:32:58.062Z,37.51
2023-08-23T11:35:25.112Z,37.19
2023-08-23T11:37:54.705Z,38.41
2023-08-23T11:40:24.214Z,38.06
2023-08-23T11:43:08.032Z,37.04
2023-08-23T11:45:43.630Z,39.03
2023-08-23T11:48:12.092Z,39.68
2023-08-23T11:50:40.194Z,38.14
2023-08-23T11:53:09.901Z,40.53
2023-08-23T11:55:37.449Z,41.82
2023-08-23T11:58:05.357Z,41.92
2023-08-23T12:00:32.503Z,41.08
2023-08-23T12:02:59.380Z,40.02
2023-08-23T12:05:26.624Z,38.32
2023-08-23T12:07:54.154Z,38.02
2023-08-23T12:10:21.132Z,39.41
2023-08-23T12:12:48.339Z,38.37
2023-08-23T12:15:15.190Z,38.19
2023-08-23T12:17:42.035Z,38.79
2023-08-23T12:20:11.683Z,38.92
2023-08-23T12:22:45.404Z,36.92
2023-08-23T12:25:12.289Z,38.94
2023-08-23T12:27:39.274Z,38.80
2023-08-23T12:30:07.419Z,39.26
2023-08-23T12:32:34.340Z,39.79
2023-08-23T12:35:04.857Z,40.94
2023-08-23T12:37:31.818Z,38.79
2023-08-23T12:39:58.662Z,40.46
2023-08-23T12:42:25.529Z,39.75
2023-08-23T12:44:52.391Z,38.37
2023-08-23T12:47:19.309Z,37.13
2023-08-23T12:49:46.224Z,36.75
2023-08-23T12:52:14.156Z,37.48
2023-08-23T12:54:41.071Z,37.02
2023-08-23T12:57:08.111Z,38.06
2023-08-23T12:59:34.976Z,38.02
2023-08-23T13:02:01.927Z,37.80
2023-08-23T13:04:28.853Z,36.00
2023-08-23T13:06:55.692Z,37.09
2023-08-23T13:09:23.584Z,35.30
2023-08-23T13:11:50.471Z,35.51
2023-08-23T13:14:18.358Z,37.21
2023-08-23T13:16:45.215Z,38.58
2023-08-23T13:19:12.063Z,39.53
2023-08-23T13:21:39.188Z,38.74
2023-08-23T13:24:06.294Z,38.24
2023-08-23T13:26:35.129Z,38.07
2023-08-23T13:29:02.001Z,36.86
2023-08-23T13:31:29.248Z,38.15
2023-08-23T13:33:56.192Z,37.70
2023-08-23T13:36:23.044Z,38.27
2023-08-23T13:38:49.908Z,36.80
2023-08-23T13:41:16.802Z,38.18
2023-08-23T13:43:43.651Z,38.09
2023-08-23T13:46:11.187Z,38.40
2023-08-23T13:48:38.680Z,37.71
2023-08-23T13:51:06.611Z,37.21
2023-08-23T13:53:33.482Z,38.18
2023-08-23T13:56:00.369Z,36.83
2023-08-23T13:58:27.275Z,35.14
2023-08-23T14:00:54.253Z,35.33
2023-08-23T14:03:21.150Z,34.74
2023-08-23T14:05:48.225Z,35.94
2023-08-23T14:08:15.106Z,36.42
2023-08-23T14:10:41.957Z,35.92
2023-08-23T14:13:08.917Z,35.32
2023-08-23T14:15:35.844Z,35.45
2023-08-23T14:18:02.752Z,34.49
2023-08-23T14:20:29.631Z,33.18
2023-08-23T14:22:56.491Z,35.47
2023-08-23T14:25:23.338Z,35.20
2023-08-23T14:27:50.549Z,35.99
2023-08-23T14:30:17.631Z,33.13
2023-08-23T14:32:51.686Z,31.00
2023-08-23T14:35:19.437Z,30.72
2023-08-23T14:37:47.443Z,29.59
2023-08-23T14:40:15.391Z,30.39
2023-08-23T14:42:43.410Z,30.26
2023-08-23T14:45:11.308Z,30.91
2023-08-23T14:47:38.447Z,31.04
2023-08-23T14:50:06.178Z,30.47
2023-08-23T14:52:34.088Z,31.97
2023-08-23T14:55:09.947Z,31.39
2023-08-23T14:57:37.700Z,30.46
2023-08-23T15:00:05.912Z,29.32
2023-08-23T15:02:35.159Z,28.83
2023-08-23T15:05:03.480Z,29.97
2023-08-23T15:07:30.661Z,28.85
2023-08-23T15:09:57.573Z,28.11
2023-08-23T15:12:24.544Z,29.27
2023-08-23T15:14:51.482Z,29.05
2023-08-23T15:17:18.902Z,29.95
2023-08-23T15:19:47.837Z,28.72
2023-08-23T15:22:14.840Z,28.20
2023-08-23T15:24:41.706Z,29.47
2023-08-23T15:27:09.089Z,29.61
2023-08-23T15:29:40.508Z,30.22
2023-08-23T15:32:12.218Z,30.78
2023-08-23T15:34:53.321Z,32.34
2023-08-23T15:37:21.768Z,33.57
2023-08-23T15:39:50.249Z,36.51
2023-08-23T15:42:17.347Z,36.45
2023-08-23T15:44:44.828Z,37.97
2023-08-23T15:47:11.823Z,40.21
2023-08-23T15:49:38.675Z,39.81
2023-08-23T15:52:05.884Z,40.97
2023-08-23T15:54:33.045Z,40.79
2023-08-23T15:57:00.000Z,41.34
2023-08-23T15:59:28.876Z,42.09
2023-08-23T16:01:56.409Z,42.14
2023-08-23T16:04:24.946Z,43.08
2023-08-23T16:06:56.289Z,43.51
2023-08-23T16:09:23.911Z,43.65
2023-08-23T16:11:51.064Z,43.58
2023-08-23T16:14:18.369Z,43.50
2023-08-23T16:16:45.241Z,44.54
2023-08-23T16:19:12.573Z,44.10
2023-08-23T16:21:39.742Z,44.81
2023-08-23T16:24:06.684Z,45.01
2023-08-23T16:26:33.542Z,45.62
2023-08-23T16:29:00.999Z,44.70
2023-08-23T16:31:28.298Z,44.66
2023-08-23T16:33:55.165Z,44.64
2023-08-23T16:36:22.061Z,43.49
2023-08-23T16:38:51.228Z,42.65
2023-08-23T16:41:18.187Z,43.12
2023-08-23T16:43:45.063Z,43.71
2023-08-23T16:46:12.118Z,44.00
2023-08-23T16:48:39.055Z,45.29
2023-08-23T16:51:06.407Z,45.13
2023-08-23T16:53:33.334Z,45.83
2023-08-23T16:56:00.188Z,46.34
2023-08-23T16:58:29.067Z,47.67
2023-08-23T17:00:57.903Z,47.75
2023-08-23T17:03:24.819Z,48.25
2023-08-23T17:05:51.994Z,50.04
2023-08-23T17:08:18.892Z,51.29
2023-08-23T17:10:45.817Z,51.21
2023-08-23T17:13:12.708Z,51.82
2023-08-23T17:15:39.572Z,50.83
2023-08-23T17:18:06.618Z,51.20
2023-08-23T17:20:33.550Z,51.25
2023-08-23T17:23:01.698Z,51.83
2023-08-23T17:25:29.036Z,51.69
2023-08-23T17:28:01.186Z,52.61
2023-08-23T17:30:29.815Z,53.14
2023-08-23T17:32:56.689Z,54.35
2023-08-23T17:35:23.581Z,54.35
2023-08-23T17:37:50.672Z,54.83
2023-08-23T17:40:17.637Z,55.92
2023-08-23T17:42:45.227Z,55.05
2023-08-23T17:45:12.319Z,55.54
2023-08-23T17:47:39.449Z,56.40
2023-08-23T17:50:06.786Z,57.12
2023-08-23T17:52:33.803Z,58.22
2023-08-23T17:55:00.730Z,58.36
2023-08-23T17:57:27.803Z,57.88
2023-08-23T17:59:54.645Z,58.19
2023-08-23T18:02:21.575Z,58.47
2023-08-23T18:04:48.478Z,58.84
2023-08-23T18:07:15.359Z,58.63
2023-08-23T18:09:44.255Z,58.88
2023-08-23T18:12:11.507Z,59.19
2023-08-23T18:14:38.370Z,59.86
2023-08-23T18:17:05.467Z,60.10
2023-08-23T18:19:32.331Z,60.31
2023-08-23T18:21:59.210Z,60.94
2023-08-23T18:24:26.092Z,60.97
2023-08-23T18:26:52.988Z,61.64
2023-08-23T18:29:19.837Z,62.34
2023-08-23T18:31:46.662Z,62.46
2023-08-23T18:34:13.556Z,62.85
2023-08-23T18:36:40.439Z,63.33
2023-08-23T18:39:07.293Z,64.12
2023-08-23T18:41:34.197Z,63.98
2023-08-23T18:44:01.145Z,64.09
2023-08-23T18:46:28.849Z,65.13
2023-08-23T18:48:55.713Z,65.31
2023-08-23T18:51:22.633Z,65.04
2023-08-23T18:53:49.491Z,65.70
2023-08-23T18:56:16.468Z,65.79
2023-08-23T18:58:43.350Z,66.20
2023-08-23T19:01:10.240Z,67.11
2023-08-23T19:03:38.445Z,66.69
2023-08-23T19:06:05.498Z,67.12
2023-08-23T19:08:32.376Z,66.61
2023-08-23T19:11:00.012Z,66.21
2023-08-23T19:13:27.006Z,66.47
2023-08-23T19:15:53.867Z,66.49
2023-08-23T19:18:21.523Z,65.84
2023-08-23T19:20:51.775Z,65.61
2023-08-23T19:23:18.728Z,65.96
2023-08-23T19:25:45.800Z,65.65
2023-08-23T19:28:12.821Z,65.31
2023-08-23T19:30:39.719Z,65.43
2023-08-23T19:33:06.756Z,64.81
2023-08-23T19:35:45.692Z,63.21
2023-08-23T19:38:13.338Z,62.19
2023-08-23T19:40:40.253Z,61.76
2023-08-23T19:43:07.634Z,61.47
2023-08-23T19:45:34.642Z,61.46
2023-08-23T19:48:10.972Z,61.18
2023-08-23T19:50:49.238Z,61.78
2023-08-23T19:53:16.304Z,62.30
2023-08-23T19:55:43.219Z,62.43
2023-08-23T19:58:10.068Z,62.05
2023-08-23T20:00:36.994Z,62.06
2023-08-23T20:03:04.457Z,61.65
2023-08-23T20:05:31.437Z,62.00
2023-08-23T20:08:01.303Z,62.72
2023-08-23T20:10:29.123Z,62.48
2023-08-23T20:12:56.061Z,62.62
2023-08-23T20:15:22.994Z,62.38
2023-08-23T20:17:50.240Z,62.65
2023-08-23T20:20:17.501Z,62.00
2023-08-23T20:22:44.317Z,61.31
2023-08-23T20:25:11.321Z,61.12
2023-08-23T20:27:38.143Z,61.09
2023-08-23T20:30:06.161Z,60.89
2023-08-23T20:32:33.057Z,60.92
2023-08-23T20:34:59.946Z,60.54
2023-08-23T20:37:27.346Z,60.58
2023-08-23T20:39:54.294Z,60.61
2023-08-23T20:42:23.007Z,60.36
2023-08-23T20:44:49.883Z,60.47
2023-08-23T20:47:16.705Z,60.38
2023-08-23T20:49:43.524Z,60.54
2023-08-23T20:52:10.418Z,60.10
2023-08-23T20:54:37.335Z,60.26
2023-08-23T20:57:04.320Z,60.18
2023-08-23T20:59:31.145Z,60.43
2023-08-23T21:01:58.033Z,60.08
2023-08-23T21:04:26.531Z,60.04
2023-08-23T21:06:53.533Z,60.25
2023-08-23T21:09:20.367Z,61.25
2023-08-23T21:11:47.194Z,61.43
2023-08-23T21:14:14.057Z,61.24
2023-08-23T21:16:41.112Z,62.76
2023-08-23T21:19:08.197Z,64.05
2023-08-23T21:21:35.070Z,64.68
2023-08-23T21:24:02.085Z,65.04
2023-08-23T21:26:29.265Z,65.00
2023-08-23T21:28:56.177Z,65.91
2023-08-23T21:31:23.207Z,65.83
2023-08-23T21:33:50.258Z,65.89
2023-08-23T21:36:18.112Z,66.28
2023-08-23T21:38:45.809Z,66.57
2023-08-23T21:41:13.438Z,66.19
2023-08-23T21:43:40.347Z,66.47
2023-08-23T21:46:07.280Z,66.65
2023-08-23T21:48:34.375Z,66.95
2023-08-23T21:51:01.307Z,67.17
2023-08-23T21:53:28.199Z,67.66
2023-08-23T21:55:56.512Z,67.85
2023-08-23T21:58:29.885Z,67.69
2023-08-23T22:01:04.202Z,67.56
2023-08-23T22:03:39.801Z,68.16
2023-08-23T22:06:12.341Z,69.19
2023-08-23T22:08:46.942Z,68.94
2023-08-23T22:11:15.802Z,68.91
2023-08-23T22:13:43.979Z,68.45
2023-08-23T22:16:11.312Z,67.79
2023-08-23T22:18:38.906Z,66.15
2023-08-23T22:21:08.230Z,66.12
2023-08-23T22:23:35.891Z,65.42
2023-08-23T22:26:04.749Z,64.81
2023-08-23T22:28:32.575Z,64.05
2023-08-23T22:30:59.854Z,63.52
2023-08-23T22:33:27.519Z,62.72
2023-08-23T22:35:57.502Z,62.69
2023-08-23T22:38:25.387Z,62.32
2023-08-23T22:40:52.552Z,62.09
2023-08-23T22:43:19.897Z,62.52
2023-08-23T22:45:47.072Z,62.43
2023-08-23T22:48:14.119Z,62.51
2023-08-23T22:50:41.360Z,62.40
2023-08-23T22:53:08.185Z,63.60
2023-08-23T22:55:35.301Z,65.20
2023-08-23T22:58:02.194Z,65.72
2023-08-23T23:00:29.355Z,66.03
2023-08-23T23:02:58.036Z,66.78
2023-08-23T23:05:25.379Z,66.71
2023-08-23T23:07:52.469Z,67.04
2023-08-23T23:10:22.145Z,67.09
2023-08-23T23:12:49.149Z,65.76
2023-08-23T23:15:16.400Z,64.98
2023-08-23T23:17:43.874Z,64.73
2023-08-23T23:20:14.211Z,64.47
2023-08-23T23:22:41.662Z,63.81
2023-08-23T23:25:09.905Z,64.01
2023-08-23T23:27:37.777Z,64.29
2023-08-23T23:30:06.240Z,64.94
2023-08-23T23:32:34.329Z,65.19
2023-08-23T23:35:01.423Z,65.47
2023-08-23T23:37:28.769Z,66.23
2023-08-23T23:39:55.825Z,66.47
2023-08-23T23:42:22.949Z,66.85
2023-08-23T23:44:49.945Z,66.87
2023-08-23T23:47:16.938Z,66.84
2023-08-23T23:49:43.838Z,66.92
2023-08-23T23:52:10.825Z,66.63
2023-08-23T23:54:37.719Z,66.98
2023-08-23T23:57:05.887Z,67.03
2023-08-23T23:59:32.802Z,67.42
